This is the latest recevied weather packets stored in our database for station/object KG4AGD. If no packets are shown the sender has not sent any weather packets the latest 10 day(s).
| Time | Temp. | Humidity | Pressure | Rain* | Wind** | Luminosity | Snow |
|---|---|---|---|---|---|---|---|
| 1777985740 | 19.44° C | 76% | 1019.3 hPa | 0 mm | - | - | - |
| 1777985438 | 19.44° C | 74% | 1018.9 hPa | 0 mm | - | - | - |
| 1777985135 | 18.89° C | 76% | 1018.9 hPa | 0 mm | - | - | - |
| 1777984833 | 18.89° C | 75% | 1018.9 hPa | 0 mm | - | - | - |
| 1777984531 | 18.33° C | 75% | 1018.9 hPa | 0 mm | - | - | - |
| 1777984229 | 18.33° C | 76% | 1018.9 hPa | 0 mm | - | - | - |
| 1777983926 | 18.33° C | 76% | 1018.9 hPa | 0 mm | - | - | - |
| 1777983624 | 17.78° C | 77% | 1018.9 hPa | 0 mm | - | - | - |
| 1777983322 | 17.22° C | 78% | 1018.9 hPa | 0 mm | - | - | - |
| 1777983020 | 16.67° C | 79% | 1018.9 hPa | 0 mm | - | - | - |
| 1777982717 | 16.67° C | 79% | 1018.9 hPa | 0 mm | - | - | - |
| 1777982415 | 16.11° C | 82% | 1018.9 hPa | 0 mm | - | - | - |
| 1777982113 | 16.11° C | 81% | 1018.9 hPa | 0 mm | - | - | - |
| 1777981811 | 15.56° C | 83% | 1018.9 hPa | 0 mm | - | - | - |
| 1777981508 | 15.56° C | 82% | 1018.9 hPa | 0 mm | - | - | - |
| 1777981205 | 15° C | 83% | 1018.9 hPa | 0 mm | - | - | - |
| 1777980902 | 15° C | 84% | 1018.6 hPa | 0 mm | - | - | - |
| 1777980598 | 15° C | 84% | 1018.6 hPa | 0 mm | - | - | - |
| 1777980295 | 14.44° C | 84% | 1018.6 hPa | 0 mm | - | - | - |
| 1777979993 | 14.44° C | 85% | 1018.6 hPa | 0 mm | - | - | - |
| 1777979691 | 14.44° C | 86% | 1018.6 hPa | 0 mm | - | - | - |
| 1777979388 | 13.89° C | 87% | 1018.6 hPa | 0 mm | - | - | - |
| 1777979087 | 13.33° C | 88% | 1018.6 hPa | 0 mm | - | - | - |
| 1777978784 | 13.33° C | 89% | 1018.2 hPa | 0 mm | - | - | - |
| 1777978482 | 12.22° C | 91% | 1018.2 hPa | 0 mm | - | - | - |
* Rain since midnight (hover to see other rain measurements)
** Current wind speed in m/s (hover to see current wind gust speed)